»·PEaware :: FFT1005 KBIL-KBZN

FFT1005 :: KBIL-KBZN

FLIGHT INFORMATION

Flight Status: Arrived
Operator:
Frontier Airlines
More flights by this operator :: More flights under this callsign
Pilot: Hayden Y. (1870)
Aircraft: AIRBUS A320
(A320)
More flights by this aircraft type
Origin: KBIL Billings Logan Intl
United States
Destination: KBZN Gallatin
United States
More flights between these airports :: More routes between these airports
Route: +BIL5 BZN
File this flight plan on PilotEdge
Remarks: RMK / SIMBRIEF
Altitude:
(Current/Filed)
16,000ft
Speed:
(Current/Filed)
345kts
Departed: 22-May-20 08:04 AM
Arrived: 22-May-20 08:30 AM
Distance/Time
Traveled:
109nm/0:26
Distance/Time
To Go:
Arrived

Flight Plot

Page will automatically refresh every two minutes.

Flight plan parsing failed; only flown route is shown


Map Options




Map Legend


Flown Route
Filed Route
Departure Airport
Arrival Airport
Navaid (VOR, NDB)
Fix

Horizontal Profiles

Position Reports

Time Latitude Longitude Heading Altitude Ground
Speed
22-May-20 07:13 45.804428 -108.535968 180 3594ft 0kts
22-May-20 07:14 45.804428 -108.535968 180 3594ft 0kts
22-May-20 07:15 45.804428 -108.535968 180 3594ft 0kts
22-May-20 07:16 45.804428 -108.535968 180 3594ft 0kts
22-May-20 07:17 45.804428 -108.535968 180 3594ft 0kts
22-May-20 07:18 45.804428 -108.535968 180 3594ft 0kts
22-May-20 07:19 45.804428 -108.535968 180 3594ft 0kts
22-May-20 07:20 45.804428 -108.535968 180 3594ft 0kts
22-May-20 07:21 45.804428 -108.535968 180 3594ft 0kts
22-May-20 07:22 45.804428 -108.535968 180 3594ft 0kts
22-May-20 07:23 45.804428 -108.535968 180 3594ft 0kts
22-May-20 07:24 45.804428 -108.535968 180 3594ft 0kts
22-May-20 07:25 45.804428 -108.535968 180 3594ft 0kts
22-May-20 07:26 45.804428 -108.535968 180 3594ft 0kts
22-May-20 07:27 45.804428 -108.535968 180 3594ft 0kts
22-May-20 07:28 45.804428 -108.535968 180 3594ft 0kts
22-May-20 07:29 45.804428 -108.535968 179 3594ft 0kts
22-May-20 07:30 45.804428 -108.535968 179 3594ft 0kts
22-May-20 07:31 45.804428 -108.535968 179 3594ft 0kts
22-May-20 07:32 45.804428 -108.535968 179 3594ft 0kts
22-May-20 07:33 45.804428 -108.535968 179 3594ft 0kts
22-May-20 07:34 45.804428 -108.535968 179 3594ft 0kts
22-May-20 07:35 45.804428 -108.535968 179 3594ft 0kts
22-May-20 07:36 45.804428 -108.535968 179 3594ft 0kts
22-May-20 07:37 45.804428 -108.535968 179 3594ft 0kts
22-May-20 07:38 45.804428 -108.535968 179 3594ft 0kts
22-May-20 07:39 45.804428 -108.535968 179 3594ft 0kts
22-May-20 07:40 45.804428 -108.535968 179 3594ft 0kts
22-May-20 07:41 45.804428 -108.535968 179 3594ft 0kts
22-May-20 07:42 45.804428 -108.535968 180 3594ft 0kts
22-May-20 07:43 45.804428 -108.535968 180 3594ft 0kts
22-May-20 07:44 45.804428 -108.535968 180 3594ft 0kts
22-May-20 07:45 45.804428 -108.535968 180 3594ft 0kts
22-May-20 07:46 45.804428 -108.535968 180 3594ft 0kts
22-May-20 07:47 45.804428 -108.535968 180 3594ft 0kts
22-May-20 07:48 45.804428 -108.535968 180 3594ft 0kts
22-May-20 07:49 45.804428 -108.535968 180 3594ft 0kts
22-May-20 07:50 45.804428 -108.535968 180 3594ft 0kts
22-May-20 07:51 45.804428 -108.535968 180 3594ft 0kts
22-May-20 07:52 45.804428 -108.535968 180 3594ft 0kts
22-May-20 07:53 45.804428 -108.535968 180 3594ft 0kts
22-May-20 07:54 45.805009 -108.536025 169 3594ft 2kts
22-May-20 07:55 45.805274 -108.536572 90 3594ft 2kts
22-May-20 07:56 45.805277 -108.536851 90 3594ft 0kts
22-May-20 07:57 45.805277 -108.536851 90 3594ft 0kts
22-May-20 07:58 45.805281 -108.536477 87 3594ft 1kts
22-May-20 07:59 45.804767 -108.533730 87 3594ft 12kts
22-May-20 08:00 45.803947 -108.527115 111 3594ft 18kts
22-May-20 08:01 45.801977 -108.520313 112 3594ft 18kts
22-May-20 08:02 45.802332 -108.517349 291 3594ft 5kts
22-May-20 08:03 45.814445 -108.558879 293 4521ft 164kts
22-May-20 08:04 45.829083 -108.628033 290 6226ft 218kts
22-May-20 08:05 45.854236 -108.722138 289 8452ft 275kts
22-May-20 08:06 45.855529 -108.834984 264 11170ft 307kts
22-May-20 08:07 45.852463 -108.969472 264 12932ft 357kts
22-May-20 08:08 45.849309 -109.113419 264 15010ft 361kts
22-May-20 08:09 45.845887 -109.257134 264 15180ft 361kts
22-May-20 08:10 45.840262 -109.399941 256 17441ft 358kts
22-May-20 08:11 45.821505 -109.541074 255 19687ft 363kts
22-May-20 08:12 45.804412 -109.676767 254 19896ft 326kts
22-May-20 08:13 45.787761 -109.803725 254 19900ft 323kts
22-May-20 08:14 45.771178 -109.930385 254 19903ft 322kts
22-May-20 08:15 45.754988 -110.053068 253 19076ft 306kts
22-May-20 08:16 45.738955 -110.172949 254 17115ft 303kts
22-May-20 08:17 45.723075 -110.290870 254 15238ft 302kts
22-May-20 08:18 45.707163 -110.407953 255 13607ft 294kts
22-May-20 08:19 45.691865 -110.518507 255 12159ft 278kts
22-May-20 08:20 45.676440 -110.627423 256 10732ft 280kts
22-May-20 08:21 45.660920 -110.736624 257 9305ft 280kts
22-May-20 08:22 45.646275 -110.839540 257 8699ft 241kts
22-May-20 08:23 45.640731 -110.919670 277 8400ft 206kts
22-May-20 08:24 45.661442 -110.984196 307 7280ft 165kts
22-May-20 08:25 45.691121 -111.029736 309 6474ft 157kts
22-May-20 08:26 45.721816 -111.074399 316 5828ft 155kts
22-May-20 08:27 45.752019 -111.116087 314 5020ft 150kts
22-May-20 08:28 45.779605 -111.154713 315 4485ft 62kts
22-May-20 08:29 45.782087 -111.158146 316 4485ft 13kts
22-May-20 08:30 45.781505 -111.161461 148 4485ft 11kts
22-May-20 08:31 45.779606 -111.160491 138 4485ft 3kts
22-May-20 08:32 45.778555 -111.159116 137 4485ft 3kts
22-May-20 08:33 45.778346 -111.159329 245 4485ft 1kts
22-May-20 08:34 45.778230 -111.159720 247 4485ft 0kts
22-May-20 08:35 45.778230 -111.159720 247 4485ft 0kts

Navigation Log

Ident Type
Flight plan parsing failed, navigation log unavailable